createdAt,value
2023-01-09T00:01:20.416Z,2.97
2023-01-09T00:03:47.515Z,2.98
2023-01-09T00:06:14.620Z,2.99
2023-01-09T00:08:43.828Z,2.99
2023-01-09T00:11:10.777Z,2.99
2023-01-09T00:13:38.650Z,2.99
2023-01-09T00:16:07.464Z,2.99
2023-01-09T00:18:35.609Z,3.00
2023-01-09T00:21:04.627Z,3.00
2023-01-09T00:23:31.775Z,2.99
2023-01-09T00:26:13.431Z,2.99
2023-01-09T00:28:41.148Z,2.99
2023-01-09T00:31:09.809Z,2.98
2023-01-09T00:33:41.063Z,2.98
2023-01-09T00:36:08.853Z,2.97
2023-01-09T00:38:37.563Z,2.96
2023-01-09T00:41:08.178Z,2.93
2023-01-09T00:43:40.172Z,2.90
2023-01-09T00:46:08.537Z,2.88
2023-01-09T00:48:39.237Z,2.87
2023-01-09T00:51:08.336Z,2.85
2023-01-09T00:53:40.711Z,2.85
2023-01-09T00:56:12.654Z,2.85
2023-01-09T00:58:39.935Z,2.86
2023-01-09T01:01:06.928Z,2.88
2023-01-09T01:03:33.923Z,2.90
2023-01-09T01:06:19.419Z,2.89
2023-01-09T01:08:46.769Z,2.90
2023-01-09T01:11:13.731Z,2.90
2023-01-09T01:13:41.708Z,2.88
2023-01-09T01:16:12.122Z,2.86
2023-01-09T01:18:40.214Z,2.85
2023-01-09T01:21:11.914Z,2.83
2023-01-09T01:23:38.909Z,2.84
2023-01-09T01:26:16.656Z,2.85
2023-01-09T01:28:43.559Z,2.87
2023-01-09T01:31:17.362Z,2.86
2023-01-09T01:33:44.416Z,2.86
2023-01-09T01:36:11.372Z,2.87
2023-01-09T01:38:38.318Z,2.88
2023-01-09T01:41:05.838Z,2.89
2023-01-09T01:43:55.624Z,2.91
2023-01-09T01:46:23.220Z,2.94
2023-01-09T01:48:55.287Z,2.96
2023-01-09T01:51:25.046Z,2.97
2023-01-09T01:53:55.755Z,2.98
2023-01-09T01:56:37.959Z,2.99
2023-01-09T01:59:17.478Z,2.99
2023-01-09T02:01:48.786Z,2.97
2023-01-09T02:04:16.180Z,2.92
2023-01-09T02:06:46.620Z,2.87
2023-01-09T02:09:15.556Z,2.83
2023-01-09T02:11:46.589Z,2.78
2023-01-09T02:14:15.953Z,2.72
2023-01-09T02:17:09.104Z,2.65
2023-01-09T02:19:48.128Z,2.58
2023-01-09T02:22:43.843Z,2.52
2023-01-09T02:25:39.642Z,2.47
2023-01-09T02:28:20.612Z,2.42
2023-01-09T02:30:57.368Z,2.38
2023-01-09T02:34:12.544Z,2.34
2023-01-09T02:37:01.123Z,2.32
2023-01-09T02:39:31.418Z,2.32
2023-01-09T02:42:06.037Z,2.35
2023-01-09T02:44:36.230Z,2.39
2023-01-09T02:47:29.626Z,2.42
2023-01-09T02:50:02.188Z,2.44
2023-01-09T02:52:48.827Z,2.46
2023-01-09T02:55:54.220Z,2.47
2023-01-09T02:58:39.688Z,2.51
2023-01-09T03:01:24.981Z,2.55
2023-01-09T03:04:13.401Z,2.58
2023-01-09T03:06:56.107Z,2.62
2023-01-09T03:09:27.706Z,2.67
2023-01-09T03:12:01.887Z,2.71
2023-01-09T03:14:32.484Z,2.73
2023-01-09T03:17:11.733Z,2.78
2023-01-09T03:19:39.190Z,2.82
2023-01-09T03:22:08.256Z,2.84
2023-01-09T03:24:35.141Z,2.87
2023-01-09T03:27:02.908Z,2.89
2023-01-09T03:29:30.067Z,2.90
2023-01-09T03:31:57.614Z,2.92
2023-01-09T03:34:24.576Z,2.94
2023-01-09T03:36:51.738Z,2.94
2023-01-09T03:39:18.682Z,2.95
2023-01-09T03:41:45.489Z,2.97
2023-01-09T03:44:12.385Z,3.00
2023-01-09T03:46:39.231Z,3.02
2023-01-09T03:49:06.187Z,3.04
2023-01-09T03:51:33.131Z,3.07
2023-01-09T03:54:00.108Z,3.09
2023-01-09T03:56:27.032Z,3.09
2023-01-09T03:58:53.895Z,3.08
2023-01-09T04:01:20.915Z,3.10
2023-01-09T04:03:48.239Z,3.10
2023-01-09T04:06:15.243Z,3.10
2023-01-09T04:08:42.194Z,3.13
2023-01-09T04:11:09.876Z,3.14
2023-01-09T04:13:36.815Z,3.17
2023-01-09T04:16:03.933Z,3.19
2023-01-09T04:18:31.125Z,3.19
2023-01-09T04:20:58.685Z,3.20
2023-01-09T04:23:25.532Z,3.21
2023-01-09T04:25:52.486Z,3.22
2023-01-09T04:28:22.733Z,3.23
2023-01-09T04:30:49.670Z,3.25
2023-01-09T04:33:16.617Z,3.26
2023-01-09T04:35:43.569Z,3.27
2023-01-09T04:38:10.412Z,3.26
2023-01-09T04:40:37.259Z,3.26
2023-01-09T04:43:04.108Z,3.26
2023-01-09T04:45:34.088Z,3.26
2023-01-09T04:48:01.586Z,3.26
2023-01-09T04:50:28.745Z,3.27
2023-01-09T04:52:57.843Z,3.27
2023-01-09T04:55:25.014Z,3.31
2023-01-09T04:57:52.157Z,3.34
2023-01-09T05:00:19.309Z,3.36
2023-01-09T05:02:46.162Z,3.38
2023-01-09T05:05:13.108Z,3.40
2023-01-09T05:07:40.683Z,3.42
2023-01-09T05:10:10.231Z,3.42
2023-01-09T05:12:37.359Z,3.43
2023-01-09T05:15:05.821Z,3.44
2023-01-09T05:17:32.772Z,3.47
2023-01-09T05:20:01.113Z,3.48
2023-01-09T05:22:29.031Z,3.49
2023-01-09T05:24:55.976Z,3.50
2023-01-09T05:27:22.937Z,3.50
2023-01-09T05:29:49.825Z,3.52
2023-01-09T05:32:16.734Z,3.54
2023-01-09T05:34:43.677Z,3.53
2023-01-09T05:37:10.528Z,3.53
2023-01-09T05:39:37.497Z,3.54
2023-01-09T05:42:04.649Z,3.55
2023-01-09T05:44:31.462Z,3.55
2023-01-09T05:46:58.330Z,3.57
2023-01-09T05:49:25.278Z,3.57
2023-01-09T05:51:52.127Z,3.57
2023-01-09T05:54:18.990Z,3.57
2023-01-09T05:56:45.821Z,3.58
2023-01-09T05:59:12.676Z,3.58
2023-01-09T06:01:39.620Z,3.60
2023-01-09T06:04:06.468Z,3.60
2023-01-09T06:06:33.417Z,3.61
2023-01-09T06:09:00.366Z,3.61
2023-01-09T06:11:27.326Z,3.62
2023-01-09T06:13:54.273Z,3.61
2023-01-09T06:16:21.147Z,3.60
2023-01-09T06:18:48.172Z,3.61
2023-01-09T06:21:15.141Z,3.60
2023-01-09T06:23:42.091Z,3.58
2023-01-09T06:26:09.125Z,3.58
2023-01-09T06:28:36.076Z,3.58
2023-01-09T06:31:03.203Z,3.57
2023-01-09T06:33:30.594Z,3.57
2023-01-09T06:35:57.438Z,3.56
2023-01-09T06:38:24.351Z,3.55
2023-01-09T06:40:51.237Z,3.54
2023-01-09T06:43:18.088Z,3.51
2023-01-09T06:45:45.237Z,3.47
2023-01-09T06:48:12.724Z,3.42
2023-01-09T06:50:39.667Z,3.38
2023-01-09T06:53:07.228Z,3.37
2023-01-09T06:55:34.195Z,3.35
2023-01-09T06:58:01.127Z,3.34
2023-01-09T07:00:28.500Z,3.33
2023-01-09T07:02:55.429Z,3.32
2023-01-09T07:05:22.585Z,3.30
2023-01-09T07:07:49.500Z,3.30
2023-01-09T07:10:16.385Z,3.28
2023-01-09T07:12:43.456Z,3.29
2023-01-09T07:15:11.316Z,3.32
2023-01-09T07:17:38.473Z,3.35
2023-01-09T07:20:06.230Z,3.40
2023-01-09T07:22:33.288Z,3.44
2023-01-09T07:25:00.248Z,3.49
2023-01-09T07:27:27.290Z,3.55
2023-01-09T07:29:54.345Z,3.60
2023-01-09T07:32:21.393Z,3.68
2023-01-09T07:34:49.475Z,3.79
2023-01-09T07:37:16.424Z,3.88
2023-01-09T07:39:44.225Z,3.94
2023-01-09T07:42:11.968Z,3.99
2023-01-09T07:44:38.807Z,4.05
2023-01-09T07:47:05.867Z,4.07
2023-01-09T07:49:33.021Z,4.09
2023-01-09T07:51:59.969Z,4.10
2023-01-09T07:54:26.927Z,4.08
2023-01-09T07:56:54.190Z,4.08
2023-01-09T07:59:21.128Z,4.06
2023-01-09T08:01:48.157Z,4.05
2023-01-09T08:04:15.235Z,4.05
2023-01-09T08:06:42.182Z,4.15
2023-01-09T08:09:09.541Z,4.40
2023-01-09T08:11:36.602Z,4.79
2023-01-09T08:14:04.059Z,5.22
2023-01-09T08:16:31.007Z,5.56
2023-01-09T08:18:57.970Z,5.78
2023-01-09T08:21:25.422Z,5.97
2023-01-09T08:23:52.369Z,6.22
2023-01-09T08:26:20.040Z,6.48
2023-01-09T08:28:47.197Z,6.54
2023-01-09T08:31:15.330Z,6.47
2023-01-09T08:33:42.937Z,6.37
2023-01-09T08:36:10.224Z,6.26
2023-01-09T08:38:37.993Z,6.19
2023-01-09T08:41:24.977Z,6.16
2023-01-09T08:44:11.060Z,6.17
2023-01-09T08:46:57.158Z,6.25
2023-01-09T08:49:24.100Z,6.12
2023-01-09T08:51:51.383Z,5.95
2023-01-09T08:54:18.325Z,5.83
2023-01-09T08:56:45.482Z,5.72
2023-01-09T08:59:13.977Z,5.62
2023-01-09T09:01:41.070Z,5.59
2023-01-09T09:04:08.257Z,5.55
2023-01-09T09:06:38.293Z,5.51
2023-01-09T09:09:06.789Z,5.49
2023-01-09T09:11:37.496Z,5.42
2023-01-09T09:14:25.428Z,5.30
2023-01-09T09:16:53.443Z,5.18
2023-01-09T09:19:20.580Z,5.15
2023-01-09T09:21:47.716Z,5.11
2023-01-09T09:24:14.796Z,5.08
2023-01-09T09:26:43.782Z,5.10
2023-01-09T09:29:11.857Z,5.12
2023-01-09T09:31:39.267Z,5.13
2023-01-09T09:34:07.889Z,5.17
2023-01-09T09:36:35.087Z,5.19
2023-01-09T09:39:03.030Z,5.24
2023-01-09T09:42:08.246Z,5.27
2023-01-09T09:44:54.394Z,5.32
2023-01-09T09:47:43.601Z,5.36
2023-01-09T09:50:22.916Z,5.41
2023-01-09T09:52:59.316Z,5.40
2023-01-09T09:55:38.862Z,5.40
2023-01-09T09:58:11.632Z,5.39
2023-01-09T10:00:38.656Z,5.35
2023-01-09T10:03:12.139Z,5.33
2023-01-09T10:05:46.600Z,5.30
2023-01-09T10:08:25.889Z,5.27
2023-01-09T10:10:55.772Z,5.20
2023-01-09T10:13:42.536Z,5.18
2023-01-09T10:16:28.806Z,5.15
2023-01-09T10:19:19.625Z,5.12
2023-01-09T10:22:14.000Z,5.09
2023-01-09T10:24:50.163Z,5.06
2023-01-09T10:27:41.481Z,5.04
2023-01-09T10:30:14.360Z,5.02
2023-01-09T10:32:47.436Z,5.01
2023-01-09T10:35:47.603Z,4.99
2023-01-09T10:38:23.507Z,4.98
2023-01-09T10:41:07.954Z,4.98
2023-01-09T10:43:47.699Z,4.99
2023-01-09T10:46:30.931Z,5.00
2023-01-09T10:49:07.388Z,5.02
2023-01-09T10:51:48.555Z,5.02
2023-01-09T10:54:19.354Z,5.03
2023-01-09T10:57:25.857Z,5.07
2023-01-09T10:59:52.872Z,5.13
2023-01-09T11:02:31.381Z,5.14
2023-01-09T11:04:58.365Z,5.12
2023-01-09T11:07:31.075Z,5.12
2023-01-09T11:10:09.992Z,5.11
2023-01-09T11:12:37.225Z,5.12
2023-01-09T11:15:16.925Z,5.15
2023-01-09T11:17:44.856Z,5.16
2023-01-09T11:20:20.422Z,5.18
2023-01-09T11:22:53.694Z,5.23
2023-01-09T11:25:23.186Z,5.28
2023-01-09T11:28:08.572Z,5.34
2023-01-09T11:30:37.367Z,5.37
2023-01-09T11:33:26.315Z,5.39
2023-01-09T11:36:11.197Z,5.47
2023-01-09T11:38:54.256Z,5.50
2023-01-09T11:41:24.019Z,5.50
2023-01-09T11:43:53.005Z,5.49
2023-01-09T11:46:49.460Z,5.49
2023-01-09T11:49:25.237Z,5.48
2023-01-09T11:52:16.349Z,5.49
2023-01-09T11:54:54.481Z,5.50
2023-01-09T11:57:24.453Z,5.50
2023-01-09T11:59:51.461Z,5.50
2023-01-09T12:02:37.548Z,5.50
2023-01-09T12:05:23.124Z,5.50
2023-01-09T12:07:50.072Z,5.47
2023-01-09T12:10:29.713Z,5.46
2023-01-09T12:13:34.107Z,5.47
2023-01-09T12:16:03.963Z,5.48
2023-01-09T12:18:40.924Z,5.46
2023-01-09T12:21:23.347Z,5.41
2023-01-09T12:24:14.734Z,5.36
2023-01-09T12:27:06.968Z,5.31
2023-01-09T12:29:55.491Z,5.24
2023-01-09T12:32:28.676Z,5.17
2023-01-09T12:35:14.163Z,5.12
2023-01-09T12:37:50.882Z,5.09
2023-01-09T12:40:32.407Z,5.06
2023-01-09T12:43:16.758Z,5.05
2023-01-09T12:46:05.493Z,5.05
2023-01-09T12:48:47.814Z,5.05
2023-01-09T12:51:20.793Z,5.05
2023-01-09T12:53:52.169Z,5.05
2023-01-09T12:56:26.472Z,5.06
2023-01-09T12:59:02.105Z,5.07
2023-01-09T13:01:45.493Z,5.07
2023-01-09T13:04:34.917Z,5.07
2023-01-09T13:07:12.192Z,5.07
2023-01-09T13:09:55.236Z,5.07
2023-01-09T13:12:25.369Z,5.07
2023-01-09T13:15:01.000Z,5.06
2023-01-09T13:17:43.790Z,5.05
2023-01-09T13:20:22.819Z,5.05
2023-01-09T13:22:51.209Z,5.05
2023-01-09T13:25:33.660Z,5.06
2023-01-09T13:28:23.573Z,5.07
2023-01-09T13:31:09.147Z,5.08
2023-01-09T13:33:39.788Z,5.10
2023-01-09T13:36:07.140Z,5.12
2023-01-09T13:38:38.915Z,5.14
2023-01-09T13:41:34.401Z,5.15
2023-01-09T13:44:08.098Z,5.18
2023-01-09T13:46:39.263Z,5.20
2023-01-09T13:49:08.463Z,5.23
2023-01-09T13:51:37.158Z,5.24
2023-01-09T13:54:04.923Z,5.26
2023-01-09T13:56:32.279Z,5.27
2023-01-09T13:59:02.319Z,5.28
2023-01-09T14:01:36.344Z,5.29
2023-01-09T14:04:14.735Z,5.31
2023-01-09T14:06:45.268Z,5.31
2023-01-09T14:09:15.274Z,5.32
2023-01-09T14:11:43.970Z,5.33
2023-01-09T14:14:29.117Z,5.33
2023-01-09T14:16:59.541Z,5.34
2023-01-09T14:19:34.610Z,5.35
2023-01-09T14:22:02.647Z,5.35
2023-01-09T14:24:32.289Z,5.37
2023-01-09T14:27:02.041Z,5.38
2023-01-09T14:29:29.612Z,5.38
2023-01-09T14:32:26.706Z,5.39
2023-01-09T14:35:18.109Z,5.41
2023-01-09T14:37:51.605Z,5.41
2023-01-09T14:40:23.671Z,5.43
2023-01-09T14:42:58.314Z,5.44
2023-01-09T14:45:27.398Z,5.46
2023-01-09T14:48:03.879Z,5.48
2023-01-09T14:50:51.496Z,5.50
2023-01-09T14:53:24.275Z,5.50
2023-01-09T14:55:59.471Z,5.51
2023-01-09T14:58:32.429Z,5.51
2023-01-09T15:01:19.257Z,5.52
2023-01-09T15:03:51.795Z,5.52
2023-01-09T15:06:21.706Z,5.53
2023-01-09T15:08:54.175Z,5.54
2023-01-09T15:11:21.550Z,5.54
2023-01-09T15:13:51.544Z,5.55
2023-01-09T15:16:22.737Z,5.56
2023-01-09T15:18:54.110Z,5.56
2023-01-09T15:21:27.504Z,5.57
2023-01-09T15:23:55.023Z,5.58
2023-01-09T15:26:29.247Z,5.60
2023-01-09T15:29:16.368Z,5.62
2023-01-09T15:31:45.901Z,5.63
2023-01-09T15:34:19.850Z,5.64
2023-01-09T15:36:49.475Z,5.67
2023-01-09T15:39:27.140Z,5.71
2023-01-09T15:42:14.493Z,5.73
2023-01-09T15:44:44.024Z,5.76
2023-01-09T15:47:22.099Z,5.78
2023-01-09T15:49:50.790Z,5.79
2023-01-09T15:52:23.885Z,5.80
2023-01-09T15:54:51.456Z,5.81
2023-01-09T15:57:24.443Z,5.83
2023-01-09T15:59:52.305Z,5.85
2023-01-09T16:02:40.043Z,5.86
2023-01-09T16:05:15.260Z,5.85
2023-01-09T16:07:47.641Z,5.86
2023-01-09T16:10:35.160Z,5.86
2023-01-09T16:13:03.241Z,5.86
2023-01-09T16:15:34.956Z,5.87
2023-01-09T16:18:29.274Z,5.88
2023-01-09T16:21:12.907Z,5.90
2023-01-09T16:23:52.030Z,5.91
2023-01-09T16:26:23.856Z,5.92
2023-01-09T16:28:51.158Z,5.95
2023-01-09T16:31:31.664Z,5.97
2023-01-09T16:34:06.580Z,5.98
2023-01-09T16:36:37.633Z,5.99
2023-01-09T16:39:05.261Z,6.00
2023-01-09T16:41:50.739Z,6.01
2023-01-09T16:44:19.621Z,6.03
2023-01-09T16:46:46.792Z,6.04
2023-01-09T16:49:23.582Z,6.06
2023-01-09T16:51:51.853Z,6.07
2023-01-09T16:54:20.032Z,6.09
2023-01-09T16:56:54.465Z,6.10
2023-01-09T16:59:26.948Z,6.11
2023-01-09T17:01:55.263Z,6.12
2023-01-09T17:04:26.617Z,6.13
2023-01-09T17:06:53.809Z,6.14
2023-01-09T17:09:24.589Z,6.15
2023-01-09T17:11:53.044Z,6.16
2023-01-09T17:14:20.231Z,6.17
2023-01-09T17:16:48.743Z,6.19
2023-01-09T17:19:19.341Z,6.20
2023-01-09T17:21:46.677Z,6.20
2023-01-09T17:24:33.181Z,6.20
2023-01-09T17:27:20.616Z,6.22
2023-01-09T17:29:48.407Z,6.20
2023-01-09T17:32:17.225Z,6.22
2023-01-09T17:34:44.391Z,6.24
2023-01-09T17:37:19.323Z,6.24
2023-01-09T17:39:47.183Z,6.23
2023-01-09T17:42:14.400Z,6.26
2023-01-09T17:44:42.088Z,6.27
2023-01-09T17:47:18.920Z,6.28
2023-01-09T17:49:45.951Z,6.30
2023-01-09T17:52:13.555Z,6.31
2023-01-09T17:54:41.606Z,6.32
2023-01-09T17:57:15.555Z,6.34
2023-01-09T17:59:43.018Z,6.36
2023-01-09T18:02:18.600Z,6.37
2023-01-09T18:04:46.058Z,6.42
2023-01-09T18:07:16.806Z,6.43
2023-01-09T18:09:44.955Z,6.43
2023-01-09T18:12:15.362Z,6.44
2023-01-09T18:14:43.344Z,6.44
2023-01-09T18:17:13.642Z,6.46
2023-01-09T18:19:41.348Z,6.49
2023-01-09T18:22:08.406Z,6.50
2023-01-09T18:24:35.512Z,6.51
2023-01-09T18:27:02.731Z,6.55
2023-01-09T18:29:29.676Z,6.55
2023-01-09T18:31:58.437Z,6.56
2023-01-09T18:34:27.097Z,6.57
2023-01-09T18:36:54.168Z,6.58
2023-01-09T18:39:22.807Z,6.59
2023-01-09T18:41:49.835Z,6.60
2023-01-09T18:44:18.372Z,6.61
2023-01-09T18:46:47.372Z,6.62
2023-01-09T18:49:14.945Z,6.64
2023-01-09T18:51:43.640Z,6.65
2023-01-09T18:54:12.344Z,6.66
2023-01-09T18:56:40.464Z,6.66
2023-01-09T18:59:09.729Z,6.68
2023-01-09T19:01:36.972Z,6.67
2023-01-09T19:04:04.680Z,6.69
2023-01-09T19:06:32.051Z,6.71
2023-01-09T19:08:59.812Z,6.70
2023-01-09T19:11:26.856Z,6.69
2023-01-09T19:13:54.020Z,6.68
2023-01-09T19:16:21.440Z,6.66
2023-01-09T19:18:48.648Z,6.66
2023-01-09T19:21:22.409Z,6.67
2023-01-09T19:23:50.163Z,6.68
2023-01-09T19:26:20.964Z,6.67
2023-01-09T19:28:48.509Z,6.65
2023-01-09T19:31:16.470Z,6.64
2023-01-09T19:33:46.530Z,6.65
2023-01-09T19:36:13.662Z,6.64
2023-01-09T19:38:41.149Z,6.62
2023-01-09T19:41:14.610Z,6.63
2023-01-09T19:43:42.498Z,6.64
2023-01-09T19:46:19.480Z,6.64
2023-01-09T19:48:47.872Z,6.64
2023-01-09T19:51:17.087Z,6.62
2023-01-09T19:53:44.884Z,6.65
2023-01-09T19:56:13.535Z,6.70
2023-01-09T19:58:42.143Z,6.71
2023-01-09T20:01:14.729Z,6.71
2023-01-09T20:03:46.932Z,6.73
2023-01-09T20:06:18.091Z,6.76
2023-01-09T20:08:49.749Z,6.76
2023-01-09T20:11:17.532Z,6.76
2023-01-09T20:13:45.541Z,6.78
2023-01-09T20:16:21.045Z,6.80
2023-01-09T20:18:48.953Z,6.80
2023-01-09T20:23:51.602Z,6.78
2023-01-09T20:26:20.039Z,6.79
2023-01-09T20:28:47.590Z,6.81
2023-01-09T20:31:17.111Z,6.82
2023-01-09T20:33:46.318Z,6.85
2023-01-09T20:36:14.141Z,6.88
2023-01-09T20:38:42.517Z,6.90
2023-01-09T20:41:23.194Z,6.92
2023-01-09T20:43:51.239Z,6.92
2023-01-09T20:46:20.085Z,6.92
2023-01-09T20:48:47.875Z,6.92
2023-01-09T20:51:15.002Z,6.92
2023-01-09T20:53:47.074Z,6.92
2023-01-09T20:56:14.531Z,6.90
2023-01-09T20:58:42.705Z,6.88
2023-01-09T21:01:13.720Z,6.87
2023-01-09T21:03:42.260Z,6.86
2023-01-09T21:06:13.044Z,6.86
2023-01-09T21:08:45.391Z,6.86
2023-01-09T21:11:12.829Z,6.87
2023-01-09T21:13:40.273Z,6.87
2023-01-09T21:16:13.849Z,6.86
2023-01-09T21:18:41.894Z,6.85
2023-01-09T21:21:13.539Z,6.85
2023-01-09T21:23:45.833Z,6.82
2023-01-09T21:26:14.268Z,6.80
2023-01-09T21:28:49.145Z,6.78
2023-01-09T21:31:19.531Z,6.80
2023-01-09T21:33:48.243Z,6.80
2023-01-09T21:36:16.103Z,6.81
2023-01-09T21:38:43.551Z,6.81
2023-01-09T21:41:29.544Z,6.82
2023-01-09T21:44:14.800Z,6.82
2023-01-09T21:46:57.841Z,6.84
2023-01-09T21:49:27.228Z,6.87
2023-01-09T21:51:55.325Z,6.88
2023-01-09T21:54:23.917Z,6.87
2023-01-09T21:56:52.726Z,6.86
2023-01-09T21:59:20.258Z,6.85
2023-01-09T22:01:49.392Z,6.83
2023-01-09T22:04:18.138Z,6.81
2023-01-09T22:06:45.512Z,6.78
2023-01-09T22:09:14.038Z,6.75
2023-01-09T22:11:43.312Z,6.73
2023-01-09T22:14:16.849Z,6.72
2023-01-09T22:16:47.834Z,6.69
2023-01-09T22:19:19.288Z,6.67
2023-01-09T22:21:46.964Z,6.65
2023-01-09T22:24:16.464Z,6.65
2023-01-09T22:26:44.049Z,6.63
2023-01-09T22:29:11.080Z,6.61
2023-01-09T22:31:40.322Z,6.59
2023-01-09T22:34:07.609Z,6.56
2023-01-09T22:36:34.785Z,6.54
2023-01-09T22:39:02.163Z,6.53
2023-01-09T22:41:30.749Z,6.52
2023-01-09T22:43:58.628Z,6.50
2023-01-09T22:46:26.626Z,6.47
2023-01-09T22:48:53.929Z,6.45
2023-01-09T22:51:22.237Z,6.44
2023-01-09T22:53:50.112Z,6.44
2023-01-09T22:56:22.291Z,6.42
2023-01-09T22:58:53.689Z,6.43
2023-01-09T23:01:22.439Z,6.48
2023-01-09T23:03:49.441Z,6.50
2023-01-09T23:06:19.178Z,6.50
2023-01-09T23:08:47.175Z,6.49
2023-01-09T23:11:38.568Z,6.48
2023-01-09T23:14:05.666Z,6.47
2023-01-09T23:16:32.610Z,6.50
2023-01-09T23:18:59.638Z,6.52
2023-01-09T23:21:26.671Z,6.51
2023-01-09T23:23:53.608Z,6.52
2023-01-09T23:26:20.467Z,6.52
2023-01-09T23:28:47.267Z,6.53
2023-01-09T23:31:15.601Z,6.55
2023-01-09T23:33:42.541Z,6.55
2023-01-09T23:36:09.515Z,6.54
2023-01-09T23:38:39.223Z,6.53
2023-01-09T23:41:07.504Z,6.51
2023-01-09T23:43:34.551Z,6.50
2023-01-09T23:46:02.033Z,6.50
2023-01-09T23:48:29.296Z,6.49
2023-01-09T23:50:56.223Z,6.48
2023-01-09T23:53:24.191Z,6.47
2023-01-09T23:55:56.914Z,6.47
2023-01-09T23:58:24.547Z,6.46
